Time;durP1;ratioP1;P1;durP2;ratioP2;P2;SDS_P1;SDS_P2;PMS_P1;PMS_P2;Temp;Humidity;BMP_temperature;BMP_pressure;BME280_temperature;BME280_humidity;BME280_pressure;Samples;Min_cycle;Max_cycle;Signal;HPM_P1;HPM_P2
2021/01/05 00:01:50;;;;;;;33.53;16.07;;;;;;;;;;5058001;28;20530;-65
2021/01/05 00:04:16;;;;;;;32.90;16.10;;;;;;;;;;5058024;28;20483;-65
2021/01/05 00:06:43;;;;;;;29.80;17.67;;;;;;;;;;5057994;28;20533;-65
2021/01/05 00:09:11;;;;;;;33.00;17.30;;;;;;;;;;5058011;28;20505;-65
2021/01/05 00:11:53;;;;;;;42.33;20.00;;;;;;;;;;5058086;28;20442;-65
2021/01/05 00:14:20;;;;;;;33.53;17.10;;;;;;;;;;5057513;28;20870;-65
2021/01/05 00:16:47;;;;;;;33.97;17.43;;;;;;;;;;5057953;28;20463;-65
2021/01/05 00:19:14;;;;;;;40.73;18.23;;;;;;;;;;5057998;28;20452;-65
2021/01/05 00:21:41;;;;;;;34.40;15.77;;;;;;;;;;5057705;28;20496;-65
2021/01/05 00:24:08;;;;;;;33.97;15.33;;;;;;;;;;5057666;28;20799;-65
2021/01/05 00:26:36;;;;;;;32.50;17.37;;;;;;;;;;5057870;28;20449;-65
2021/01/05 00:29:03;;;;;;;32.83;16.60;;;;;;;;;;5057603;28;20480;-65
2021/01/05 00:31:30;;;;;;;35.93;17.70;;;;;;;;;;5057941;28;20477;-65
2021/01/05 00:33:57;;;;;;;34.97;17.17;;;;;;;;;;5057710;28;20467;-65
2021/01/05 00:36:25;;;;;;;39.93;18.60;;;;;;;;;;5057747;28;20464;-65
2021/01/05 00:38:52;;;;;;;35.20;16.10;;;;;;;;;;5057378;28;20836;-65
2021/01/05 00:41:20;;;;;;;41.70;17.90;;;;;;;;;;5057415;28;20599;-66
2021/01/05 00:43:48;;;;;;;39.27;17.97;;;;;;;;;;5057342;28;20440;-65
2021/01/05 00:46:15;;;;;;;34.77;17.57;;;;;;;;;;5057422;28;20449;-65
2021/01/05 00:48:43;;;;;;;33.87;16.70;;;;;;;;;;5057777;28;20473;-65
2021/01/05 00:51:10;;;;;;;34.43;16.03;;;;;;;;;;5057674;28;20446;-65
2021/01/05 00:53:37;;;;;;;38.30;16.73;;;;;;;;;;5057570;28;20886;-65
2021/01/05 00:56:04;;;;;;;34.33;18.47;;;;;;;;;;5057473;28;20648;-65
2021/01/05 00:58:31;;;;;;;34.70;16.20;;;;;;;;;;5057355;28;20932;-65
2021/01/05 01:00:59;;;;;;;37.47;17.63;;;;;;;;;;5057309;28;20491;-65
2021/01/05 01:03:26;;;;;;;38.27;18.67;;;;;;;;;;5057601;28;20449;-65
2021/01/05 01:05:54;;;;;;;33.93;16.97;;;;;;;;;;5057458;28;20469;-65
2021/01/05 01:08:21;;;;;;;40.13;17.20;;;;;;;;;;5057372;28;20435;-65
2021/01/05 01:10:49;;;;;;;34.70;17.50;;;;;;;;;;5058296;28;20451;-66
2021/01/05 01:13:16;;;;;;;31.80;17.10;;;;;;;;;;5061437;28;20451;-65
2021/01/05 01:15:43;;;;;;;35.10;17.47;;;;;;;;;;5061262;28;20560;-65
2021/01/05 01:18:11;;;;;;;32.57;17.70;;;;;;;;;;5061412;28;20441;-65
2021/01/05 01:20:38;;;;;;;31.17;16.83;;;;;;;;;;5061124;28;20445;-65
2021/01/05 01:23:05;;;;;;;39.53;17.97;;;;;;;;;;5061352;28;20447;-65
2021/01/05 01:25:32;;;;;;;31.37;15.53;;;;;;;;;;5061095;28;20470;-65
2021/01/05 01:27:59;;;;;;;36.17;17.83;;;;;;;;;;5061150;28;20441;-65
2021/01/05 01:30:26;;;;;;;35.43;18.17;;;;;;;;;;5060689;28;20940;-67
2021/01/05 01:32:53;;;;;;;39.50;18.63;;;;;;;;;;5060913;28;20968;-65
2021/01/05 01:35:21;;;;;;;35.23;18.30;;;;;;;;;;5060891;28;20983;-65
2021/01/05 01:37:48;;;;;;;34.53;16.93;;;;;;;;;;5060659;28;20551;-65
2021/01/05 01:40:20;;;;;;;37.57;17.37;;;;;;;;;;5060918;28;20445;-65
2021/01/05 01:42:47;;;;;;;38.07;18.43;;;;;;;;;;5060674;28;20487;-65
2021/01/05 01:45:21;;;;;;;37.30;17.10;;;;;;;;;;5060386;28;20465;-66
2021/01/05 01:47:48;;;;;;;43.50;17.43;;;;;;;;;;5060950;28;20511;-65
2021/01/05 01:50:17;;;;;;;36.40;17.37;;;;;;;;;;5060782;28;20501;-65
2021/01/05 01:53:05;;;;;;;35.30;17.07;;;;;;;;;;5060717;28;20529;-65
2021/01/05 01:55:36;;;;;;;36.40;16.70;;;;;;;;;;5060464;28;20496;-65
2021/01/05 01:58:11;;;;;;;31.03;15.87;;;;;;;;;;5060273;28;20997;-65
2021/01/05 02:00:43;;;;;;;35.87;17.27;;;;;;;;;;5060208;28;20516;-65
2021/01/05 02:03:19;;;;;;;34.57;16.37;;;;;;;;;;5060567;28;20451;-65
2021/01/05 02:05:58;;;;;;;37.07;17.73;;;;;;;;;;5060150;28;20863;-65
2021/01/05 02:08:31;;;;;;;40.03;18.83;;;;;;;;;;5060292;28;20449;-65
2021/01/05 02:11:06;;;;;;;28.80;15.60;;;;;;;;;;5060290;28;20524;-65
2021/01/05 02:13:47;;;;;;;36.27;18.63;;;;;;;;;;5059877;28;20479;-65
2021/01/05 02:16:29;;;;;;;36.20;17.43;;;;;;;;;;5060031;28;20473;-65
2021/01/05 02:18:58;;;;;;;32.60;16.67;;;;;;;;;;5060457;28;20940;-65
2021/01/05 02:21:27;;;;;;;37.13;16.90;;;;;;;;;;5059775;28;20543;-65
2021/01/05 02:24:15;;;;;;;42.30;19.40;;;;;;;;;;5059808;28;20449;-65
2021/01/05 02:26:47;;;;;;;36.53;17.77;;;;;;;;;;5060073;28;20435;-65
2021/01/05 02:29:16;;;;;;;40.90;20.27;;;;;;;;;;5059586;28;20453;-65
2021/01/05 02:31:53;;;;;;;36.43;17.70;;;;;;;;;;5059735;28;20520;-65
2021/01/05 02:34:38;;;;;;;37.43;17.90;;;;;;;;;;5060463;28;20540;-65
2021/01/05 02:37:13;;;;;;;34.27;17.17;;;;;;;;;;5059581;28;20442;-65
2021/01/05 02:40:02;;;;;;;38.87;18.90;;;;;;;;;;5059680;28;20535;-65
2021/01/05 02:42:44;;;;;;;42.50;18.40;;;;;;;;;;5059604;28;20481;-65
2021/01/05 02:45:13;;;;;;;33.23;17.43;;;;;;;;;;5059325;28;20471;-65
2021/01/05 02:48:07;;;;;;;36.57;17.30;;;;;;;;;;5059489;28;20552;-65
2021/01/05 02:50:46;;;;;;;33.53;16.47;;;;;;;;;;5024132;28;20445;-65
2021/01/05 02:53:21;;;;;;;36.20;18.00;;;;;;;;;;5059305;28;20449;-65
2021/01/05 02:56:16;;;;;;;34.37;16.37;;;;;;;;;;5059483;28;20897;-65
2021/01/05 02:59:05;;;;;;;32.03;17.33;;;;;;;;;;5059422;28;20923;-65
2021/01/05 03:01:53;;;;;;;31.73;16.67;;;;;;;;;;5059363;28;21063;-65
2021/01/05 03:04:20;;;;;;;38.00;18.40;;;;;;;;;;5060403;28;21051;-65
2021/01/05 03:06:49;;;;;;;38.27;17.57;;;;;;;;;;5060566;28;20437;-66
2021/01/05 03:09:36;;;;;;;32.80;16.73;;;;;;;;;;5060884;28;20448;-66
2021/01/05 03:12:11;;;;;;;39.33;19.00;;;;;;;;;;5061026;28;20533;-65
2021/01/05 03:14:44;;;;;;;34.27;16.33;;;;;;;;;;5060813;28;20483;-66
2021/01/05 03:17:16;;;;;;;33.83;17.50;;;;;;;;;;5060533;28;20442;-66
2021/01/05 03:19:47;;;;;;;36.83;18.47;;;;;;;;;;5059621;28;20967;-68
2021/01/05 03:22:16;;;;;;;34.40;17.47;;;;;;;;;;5059194;28;20495;-65
2021/01/05 03:24:44;;;;;;;36.70;17.67;;;;;;;;;;5058890;28;20469;-65
2021/01/05 03:27:12;;;;;;;42.87;19.20;;;;;;;;;;5058923;28;20476;-65
2021/01/05 03:29:40;;;;;;;34.43;16.53;;;;;;;;;;5058489;28;20940;-65
2021/01/05 03:32:09;;;;;;;40.20;18.53;;;;;;;;;;5058740;28;20450;-65
2021/01/05 03:34:36;;;;;;;34.53;16.80;;;;;;;;;;5057966;28;20475;-65
2021/01/05 03:37:03;;;;;;;36.67;18.20;;;;;;;;;;5058362;28;20457;-65
2021/01/05 03:39:30;;;;;;;37.57;17.93;;;;;;;;;;5058606;28;20520;-65
2021/01/05 03:41:57;;;;;;;39.77;17.47;;;;;;;;;;5057982;28;20485;-65
2021/01/05 03:44:24;;;;;;;32.10;17.03;;;;;;;;;;5051009;28;20473;-65
2021/01/05 03:46:52;;;;;;;43.80;18.73;;;;;;;;;;5057002;28;20456;-66
2021/01/05 03:49:19;;;;;;;37.93;17.43;;;;;;;;;;5057522;28;20445;-65
2021/01/05 03:51:46;;;;;;;36.63;16.43;;;;;;;;;;5058038;28;20549;-65
2021/01/05 03:54:13;;;;;;;36.03;16.43;;;;;;;;;;5053976;28;20496;-65
2021/01/05 03:56:40;;;;;;;36.23;17.17;;;;;;;;;;5054070;28;20442;-65
2021/01/05 03:59:07;;;;;;;32.17;16.87;;;;;;;;;;5053963;28;20453;-65
2021/01/05 04:01:34;;;;;;;38.57;16.20;;;;;;;;;;5053911;28;20835;-65
2021/01/05 04:04:02;;;;;;;32.30;15.50;;;;;;;;;;5057572;28;20442;-65
2021/01/05 04:06:29;;;;;;;35.43;16.70;;;;;;;;;;5053860;28;20537;-65
2021/01/05 04:08:56;;;;;;;27.53;15.43;;;;;;;;;;5054315;28;20433;-65
2021/01/05 04:11:23;;;;;;;37.70;17.83;;;;;;;;;;5052050;28;20441;-65
2021/01/05 04:13:50;;;;;;;30.10;16.13;;;;;;;;;;5057096;28;20445;-65
2021/01/05 04:16:17;;;;;;;31.67;15.73;;;;;;;;;;5058194;28;20437;-65
2021/01/05 04:18:44;;;;;;;32.33;16.07;;;;;;;;;;5057964;28;20520;-65
2021/01/05 04:21:13;;;;;;;33.10;17.00;;;;;;;;;;5057626;28;20452;-65
2021/01/05 04:23:40;;;;;;;33.63;15.90;;;;;;;;;;5057745;28;20473;-65
2021/01/05 04:26:07;;;;;;;33.63;17.03;;;;;;;;;;5057658;28;20453;-65
2021/01/05 04:28:34;;;;;;;31.13;15.60;;;;;;;;;;5057350;28;20445;-65
2021/01/05 04:31:01;;;;;;;34.27;16.30;;;;;;;;;;5057599;28;20937;-65
2021/01/05 04:33:30;;;;;;;35.33;16.80;;;;;;;;;;5057413;28;20799;-65
2021/01/05 04:35:57;;;;;;;33.40;17.73;;;;;;;;;;5057603;28;20549;-65
2021/01/05 04:38:25;;;;;;;31.57;16.87;;;;;;;;;;5057369;28;20556;-65
2021/01/05 04:40:55;;;;;;;39.40;18.80;;;;;;;;;;5057635;28;20457;-65
2021/01/05 04:43:43;;;;;;;40.37;18.50;;;;;;;;;;5057091;28;20572;-65
2021/01/05 04:46:28;;;;;;;39.97;18.10;;;;;;;;;;5058654;28;20508;-65
2021/01/05 04:48:56;;;;;;;38.23;17.83;;;;;;;;;;5053246;28;20541;-65
2021/01/05 04:51:33;;;;;;;36.93;18.13;;;;;;;;;;5064045;28;20485;-65
2021/01/05 04:54:03;;;;;;;40.17;17.20;;;;;;;;;;5063975;28;20445;-65
2021/01/05 04:56:39;;;;;;;36.97;17.87;;;;;;;;;;5064168;28;20456;-65
2021/01/05 04:59:08;;;;;;;33.80;17.70;;;;;;;;;;5064178;28;20513;-65
2021/01/05 05:01:35;;;;;;;35.00;17.37;;;;;;;;;;5063904;28;20487;-66
2021/01/05 05:04:07;;;;;;;33.13;16.53;;;;;;;;;;5064198;28;21001;-65
2021/01/05 05:06:36;;;;;;;36.23;17.17;;;;;;;;;;5064015;28;20817;-65
2021/01/05 05:09:09;;;;;;;36.73;18.57;;;;;;;;;;5063999;28;20920;-65
2021/01/05 05:11:41;;;;;;;39.47;16.90;;;;;;;;;;5064137;28;20441;-65
2021/01/05 05:14:11;;;;;;;31.67;15.80;;;;;;;;;;5063424;28;22406;-65
2021/01/05 05:16:46;;;;;;;38.07;17.87;;;;;;;;;;5063877;28;20453;-65
2021/01/05 05:19:20;;;;;;;40.50;18.13;;;;;;;;;;5063866;28;20801;-65
2021/01/05 05:21:50;;;;;;;37.93;18.13;;;;;;;;;;5063840;28;20821;-65
2021/01/05 05:24:23;;;;;;;35.03;17.40;;;;;;;;;;5063796;28;20481;-65
2021/01/05 05:26:54;;;;;;;39.10;18.00;;;;;;;;;;5063990;28;20477;-65
2021/01/05 05:29:24;;;;;;;41.23;18.27;;;;;;;;;;5063553;28;20536;-65
2021/01/05 05:31:52;;;;;;;36.97;17.43;;;;;;;;;;5063788;28;20549;-65
2021/01/05 05:34:23;;;;;;;36.53;16.90;;;;;;;;;;5063820;28;20905;-65
2021/01/05 05:36:57;;;;;;;38.43;18.07;;;;;;;;;;5063872;28;20457;-65
2021/01/05 05:39:39;;;;;;;36.27;18.90;;;;;;;;;;5063861;28;20437;-65
2021/01/05 05:42:12;;;;;;;41.10;17.27;;;;;;;;;;5063491;28;20523;-65
2021/01/05 05:44:43;;;;;;;35.33;18.60;;;;;;;;;;5063591;28;20472;-65
2021/01/05 05:47:14;;;;;;;34.33;18.70;;;;;;;;;;5063781;28;20441;-65
2021/01/05 05:49:46;;;;;;;41.83;17.63;;;;;;;;;;5063575;28;20882;-65
2021/01/05 05:52:21;;;;;;;34.07;16.73;;;;;;;;;;5063843;28;20445;-67
2021/01/05 05:54:49;;;;;;;34.70;16.90;;;;;;;;;;5062497;28;20555;-64
2021/01/05 05:57:26;;;;;;;30.93;15.90;;;;;;;;;;5060263;28;20456;-64
2021/01/05 05:59:54;;;;;;;33.83;16.80;;;;;;;;;;5060056;28;20946;-65
2021/01/05 06:02:22;;;;;;;33.13;16.00;;;;;;;;;;5060518;28;20485;-64
2021/01/05 06:04:50;;;;;;;34.77;17.73;;;;;;;;;;5060376;28;20557;-64
2021/01/05 06:07:17;;;;;;;41.73;18.20;;;;;;;;;;5060160;28;20813;-64
2021/01/05 06:09:44;;;;;;;39.57;19.07;;;;;;;;;;5060486;28;20449;-64
2021/01/05 06:12:11;;;;;;;43.00;19.77;;;;;;;;;;5060192;28;20524;-65
2021/01/05 06:14:38;;;;;;;37.37;16.73;;;;;;;;;;5059986;28;20560;-64
2021/01/05 06:17:05;;;;;;;34.40;16.83;;;;;;;;;;5059893;28;20532;-65
2021/01/05 06:19:32;;;;;;;38.70;16.93;;;;;;;;;;5057678;28;20457;-65
2021/01/05 06:21:59;;;;;;;32.03;15.90;;;;;;;;;;5059614;28;20916;-65
2021/01/05 06:24:26;;;;;;;34.00;17.03;;;;;;;;;;5059741;28;20549;-65
2021/01/05 06:26:53;;;;;;;33.47;18.27;;;;;;;;;;5059762;28;20460;-65
2021/01/05 06:29:21;;;;;;;41.13;18.70;;;;;;;;;;5059509;28;20445;-65
2021/01/05 06:31:48;;;;;;;45.97;18.43;;;;;;;;;;5059442;28;20473;-65
2021/01/05 06:34:15;;;;;;;37.77;17.17;;;;;;;;;;5059042;28;20545;-65
2021/01/05 06:36:42;;;;;;;35.63;17.77;;;;;;;;;;5059206;28;20457;-65
2021/01/05 06:39:09;;;;;;;38.77;17.20;;;;;;;;;;5058998;28;20476;-65
2021/01/05 06:41:36;;;;;;;39.10;17.63;;;;;;;;;;5058985;28;20461;-65
2021/01/05 06:44:03;;;;;;;35.73;18.00;;;;;;;;;;5060504;28;20872;-65
2021/01/05 06:46:32;;;;;;;31.53;16.90;;;;;;;;;;5060610;28;20477;-65
2021/01/05 06:48:59;;;;;;;32.53;15.63;;;;;;;;;;5060720;28;20499;-67
2021/01/05 06:51:27;;;;;;;31.80;17.00;;;;;;;;;;5060382;28;20445;-65
2021/01/05 06:53:54;;;;;;;29.63;15.47;;;;;;;;;;5057955;28;20530;-68
2021/01/05 06:56:21;;;;;;;34.37;16.60;;;;;;;;;;5058882;28;20429;-65
2021/01/05 06:58:49;;;;;;;23.57;12.57;;;;;;;;;;5059054;28;20810;-65
2021/01/05 07:01:17;;;;;;;24.43;11.73;;;;;;;;;;5058245;28;20945;-66
2021/01/05 07:03:45;;;;;;;23.10;10.07;;;;;;;;;;5058950;28;20506;-66
2021/01/05 07:06:12;;;;;;;14.90;8.90;;;;;;;;;;5058790;28;20466;-66
2021/01/05 07:08:39;;;;;;;15.63;8.47;;;;;;;;;;5057650;28;20475;-66
2021/01/05 07:11:07;;;;;;;17.70;7.93;;;;;;;;;;5058886;28;20445;-66
2021/01/05 07:13:34;;;;;;;16.77;6.70;;;;;;;;;;5058897;28;20449;-66
2021/01/05 07:16:01;;;;;;;11.80;7.13;;;;;;;;;;5058827;28;20870;-66
2021/01/05 07:18:28;;;;;;;15.13;7.77;;;;;;;;;;5058838;28;20460;-66
2021/01/05 07:20:57;;;;;;;12.40;6.53;;;;;;;;;;5058427;28;20499;-66
2021/01/05 07:23:24;;;;;;;11.90;6.97;;;;;;;;;;5058962;28;20569;-66
2021/01/05 07:25:51;;;;;;;14.63;7.43;;;;;;;;;;5058260;28;20534;-66
2021/01/05 07:28:18;;;;;;;14.53;7.77;;;;;;;;;;5058086;28;20453;-66
2021/01/05 07:30:45;;;;;;;12.00;7.83;;;;;;;;;;5058405;28;20480;-66
2021/01/05 07:33:12;;;;;;;13.33;7.13;;;;;;;;;;5058751;28;20499;-66
2021/01/05 07:35:39;;;;;;;12.30;7.17;;;;;;;;;;5058348;28;20450;-66
2021/01/05 07:38:08;;;;;;;12.33;7.67;;;;;;;;;;5058465;28;20476;-66
2021/01/05 07:40:35;;;;;;;15.30;7.70;;;;;;;;;;5058303;28;20453;-66
2021/01/05 07:43:02;;;;;;;12.00;7.10;;;;;;;;;;5057622;28;20535;-66
2021/01/05 07:45:30;;;;;;;12.27;6.87;;;;;;;;;;5058190;28;20492;-66
2021/01/05 07:47:57;;;;;;;21.37;11.70;;;;;;;;;;5049966;28;20525;-66
2021/01/05 07:50:26;;;;;;;35.03;16.53;;;;;;;;;;5058465;28;20441;-66
2021/01/05 07:52:55;;;;;;;40.67;17.43;;;;;;;;;;5058051;28;20453;-65
2021/01/05 07:55:24;;;;;;;37.40;17.43;;;;;;;;;;5066501;28;20906;-65
2021/01/05 07:57:52;;;;;;;33.50;16.67;;;;;;;;;;5058014;28;20453;-66
2021/01/05 08:00:20;;;;;;;34.20;16.57;;;;;;;;;;5057524;28;20811;-66
2021/01/05 08:02:48;;;;;;;39.10;18.10;;;;;;;;;;5057311;28;20488;-66
2021/01/05 08:05:17;;;;;;;37.27;17.73;;;;;;;;;;5049363;28;20470;-66
2021/01/05 08:07:45;;;;;;;34.20;17.13;;;;;;;;;;5057910;28;20472;-66
2021/01/05 08:10:17;;;;;;;37.63;17.47;;;;;;;;;;5058126;28;20525;-66
2021/01/05 08:12:45;;;;;;;40.23;18.80;;;;;;;;;;5057413;28;20499;-66
2021/01/05 08:15:13;;;;;;;34.90;17.90;;;;;;;;;;5057383;28;20477;-66
2021/01/05 08:17:40;;;;;;;41.27;18.03;;;;;;;;;;5057731;28;20456;-66
2021/01/05 08:20:08;;;;;;;36.40;17.27;;;;;;;;;;5057277;28;20449;-66
2021/01/05 08:22:35;;;;;;;35.30;17.67;;;;;;;;;;5057749;28;20485;-66
2021/01/05 08:25:05;;;;;;;37.37;16.77;;;;;;;;;;5057666;28;20450;-66
2021/01/05 08:27:33;;;;;;;30.93;15.77;;;;;;;;;;5057450;28;20445;-66
2021/01/05 08:30:01;;;;;;;34.10;16.90;;;;;;;;;;5057355;28;20449;-66
2021/01/05 08:32:29;;;;;;;33.30;17.30;;;;;;;;;;5057536;28;20480;-66
2021/01/05 08:34:56;;;;;;;38.47;16.47;;;;;;;;;;5057386;28;20874;-66
2021/01/05 08:37:23;;;;;;;32.43;16.97;;;;;;;;;;5057333;28;20474;-66
2021/01/05 08:39:50;;;;;;;36.07;16.97;;;;;;;;;;5057569;28;20440;-66
2021/01/05 08:42:17;;;;;;;34.93;16.53;;;;;;;;;;5057138;28;20488;-66
2021/01/05 08:44:44;;;;;;;38.83;18.53;;;;;;;;;;5057203;28;20519;-66
2021/01/05 08:47:13;;;;;;;32.40;17.03;;;;;;;;;;5054041;28;20464;-66
2021/01/05 08:49:40;;;;;;;32.93;16.10;;;;;;;;;;5049382;28;20856;-66
2021/01/05 08:52:08;;;;;;;32.33;16.67;;;;;;;;;;5057137;28;20453;-66
2021/01/05 08:54:35;;;;;;;32.83;16.30;;;;;;;;;;5057185;28;20469;-66
2021/01/05 08:57:03;;;;;;;32.10;15.70;;;;;;;;;;5064221;28;20445;-66
2021/01/05 08:59:30;;;;;;;34.93;15.10;;;;;;;;;;5056949;28;20450;-66
2021/01/05 09:01:57;;;;;;;27.03;14.73;;;;;;;;;;5056288;28;20441;-66
2021/01/05 09:04:25;;;;;;;32.73;15.60;;;;;;;;;;5051768;28;20460;-66
2021/01/05 09:06:55;;;;;;;32.90;16.93;;;;;;;;;;5055085;28;20556;-66
2021/01/05 09:09:23;;;;;;;32.63;16.37;;;;;;;;;;5056711;28;20449;-65
2021/01/05 09:11:51;;;;;;;34.90;16.27;;;;;;;;;;5056971;28;20444;-66
2021/01/05 09:14:19;;;;;;;34.73;15.33;;;;;;;;;;5056612;28;21004;-66
2021/01/05 09:16:46;;;;;;;23.50;13.30;;;;;;;;;;5057357;28;20469;-66
2021/01/05 09:19:14;;;;;;;29.10;15.63;;;;;;;;;;5057417;28;20485;-66
2021/01/05 09:21:47;;;;;;;27.03;13.93;;;;;;;;;;5057098;28;20512;-66
2021/01/05 09:24:15;;;;;;;26.60;14.13;;;;;;;;;;5056674;28;20485;-66
2021/01/05 09:26:42;;;;;;;23.47;13.57;;;;;;;;;;5057094;28;20531;-66
2021/01/05 09:29:11;;;;;;;33.73;14.33;;;;;;;;;;5056992;28;20457;-65
2021/01/05 09:31:42;;;;;;;26.40;14.07;;;;;;;;;;5057763;28;20448;-65
2021/01/05 09:34:09;;;;;;;21.33;13.07;;;;;;;;;;5060956;28;20502;-66
2021/01/05 09:36:37;;;;;;;26.37;14.33;;;;;;;;;;5060645;28;20441;-65
2021/01/05 09:39:07;;;;;;;21.87;12.93;;;;;;;;;;5060549;28;20509;-65
2021/01/05 09:41:36;;;;;;;28.37;12.67;;;;;;;;;;5060330;28;20502;-66
2021/01/05 09:44:04;;;;;;;22.87;13.23;;;;;;;;;;5059131;28;20488;-65
2021/01/05 09:46:32;;;;;;;24.33;12.50;;;;;;;;;;5060608;28;20801;-65
2021/01/05 09:48:59;;;;;;;22.57;12.87;;;;;;;;;;5058355;28;20543;-66
2021/01/05 09:51:27;;;;;;;21.33;12.90;;;;;;;;;;5060025;28;20491;-65
2021/01/05 09:54:12;;;;;;;22.07;11.97;;;;;;;;;;5054362;28;20472;-65
2021/01/05 09:56:39;;;;;;;25.53;13.03;;;;;;;;;;5064441;28;20459;-65
2021/01/05 09:59:06;;;;;;;23.33;13.17;;;;;;;;;;5069515;28;20520;-66
2021/01/05 10:01:33;;;;;;;27.50;13.60;;;;;;;;;;5069424;28;20442;-66
2021/01/05 10:04:00;;;;;;;22.87;12.80;;;;;;;;;;5069669;28;20842;-66
2021/01/05 10:06:29;;;;;;;24.13;12.20;;;;;;;;;;5071016;28;20441;-66
2021/01/05 10:08:56;;;;;;;20.90;12.07;;;;;;;;;;5061352;28;20503;-66
2021/01/05 10:11:29;;;;;;;26.07;13.27;;;;;;;;;;5060874;28;20491;-66
2021/01/05 10:13:56;;;;;;;19.57;12.17;;;;;;;;;;5060052;28;20442;-66
2021/01/05 10:16:24;;;;;;;21.37;13.13;;;;;;;;;;5060102;28;20441;-66
2021/01/05 10:18:51;;;;;;;24.17;12.97;;;;;;;;;;5060397;28;20445;-66
2021/01/05 10:21:18;;;;;;;22.57;12.53;;;;;;;;;;5060298;28;20978;-66
2021/01/05 10:23:45;;;;;;;23.10;12.90;;;;;;;;;;5060327;28;20480;-66
2021/01/05 10:26:12;;;;;;;25.33;13.07;;;;;;;;;;5059945;28;20469;-66
2021/01/05 10:28:40;;;;;;;23.90;13.73;;;;;;;;;;5059157;28;20442;-66
2021/01/05 10:31:08;;;;;;;24.27;13.40;;;;;;;;;;5059060;28;20446;-67
2021/01/05 10:33:35;;;;;;;24.53;13.53;;;;;;;;;;5058937;28;20444;-67
2021/01/05 10:36:02;;;;;;;21.53;13.20;;;;;;;;;;5059823;28;20465;-67
2021/01/05 10:38:32;;;;;;;24.33;12.80;;;;;;;;;;5059715;28;20496;-67
2021/01/05 10:40:59;;;;;;;24.87;12.87;;;;;;;;;;5059652;28;20517;-67
2021/01/05 10:43:26;;;;;;;22.80;13.83;;;;;;;;;;5058992;28;21015;-67
2021/01/05 10:45:54;;;;;;;23.07;12.57;;;;;;;;;;5059585;28;20465;-67
2021/01/05 10:48:21;;;;;;;25.53;13.40;;;;;;;;;;5068857;28;20503;-66
2021/01/05 10:50:48;;;;;;;24.93;12.87;;;;;;;;;;5055022;28;20449;-67
2021/01/05 10:53:15;;;;;;;27.50;14.60;;;;;;;;;;5059315;28;20525;-67
2021/01/05 10:55:42;;;;;;;26.70;15.00;;;;;;;;;;5059202;28;20461;-67
2021/01/05 10:58:09;;;;;;;20.70;12.53;;;;;;;;;;5058640;28;20508;-67
2021/01/05 11:00:36;;;;;;;18.23;13.07;;;;;;;;;;5059339;28;20452;-66
2021/01/05 11:03:06;;;;;;;25.43;12.83;;;;;;;;;;5059202;28;20537;-67
2021/01/05 11:05:33;;;;;;;25.83;13.33;;;;;;;;;;5059025;28;20473;-68
2021/01/05 11:08:00;;;;;;;21.63;13.27;;;;;;;;;;5059092;28;20452;-67
2021/01/05 11:10:27;;;;;;;22.50;12.27;;;;;;;;;;5059156;28;20524;-67
2021/01/05 11:12:56;;;;;;;30.17;14.73;;;;;;;;;;5058554;28;20525;-67
2021/01/05 11:15:23;;;;;;;27.07;13.10;;;;;;;;;;5058647;28;20835;-69
2021/01/05 11:17:50;;;;;;;26.07;12.47;;;;;;;;;;5059137;28;20450;-70
2021/01/05 11:20:19;;;;;;;21.87;12.17;;;;;;;;;;5058877;28;20839;-67
2021/01/05 11:22:46;;;;;;;21.40;13.23;;;;;;;;;;5057628;28;20560;-68
2021/01/05 11:25:14;;;;;;;27.87;14.40;;;;;;;;;;5057142;28;20454;-68
2021/01/05 11:27:41;;;;;;;27.40;13.87;;;;;;;;;;5057470;28;20461;-68
2021/01/05 11:30:12;;;;;;;22.17;13.10;;;;;;;;;;5057259;28;20447;-68
2021/01/05 11:32:38;;;;;;;26.07;14.13;;;;;;;;;;5057369;28;20506;-68
2021/01/05 11:35:06;;;;;;;22.00;12.20;;;;;;;;;;5052364;28;20457;-69
2021/01/05 11:37:35;;;;;;;25.80;14.97;;;;;;;;;;5056969;28;21076;-69
2021/01/05 11:40:03;;;;;;;23.77;14.23;;;;;;;;;;5057318;28;20444;-69
2021/01/05 11:42:30;;;;;;;20.90;13.37;;;;;;;;;;5056672;28;20536;-69
2021/01/05 11:44:57;;;;;;;21.93;11.77;;;;;;;;;;5056946;28;20453;-69
2021/01/05 11:47:24;;;;;;;21.53;12.67;;;;;;;;;;5055132;28;20459;-69
2021/01/05 11:49:52;;;;;;;20.90;12.70;;;;;;;;;;5056722;28;20467;-69
2021/01/05 11:52:20;;;;;;;22.33;13.77;;;;;;;;;;5057213;28;20458;-69
2021/01/05 11:54:47;;;;;;;25.13;13.43;;;;;;;;;;5056162;28;20796;-69
2021/01/05 11:57:14;;;;;;;18.30;11.97;;;;;;;;;;5054359;28;20444;-69
2021/01/05 11:59:41;;;;;;;25.00;13.13;;;;;;;;;;5056461;28;20529;-70
2021/01/05 12:02:08;;;;;;;24.83;12.70;;;;;;;;;;5056933;28;20456;-69
2021/01/05 12:04:35;;;;;;;27.60;14.87;;;;;;;;;;5057170;28;20572;-70
2021/01/05 12:07:02;;;;;;;23.30;13.33;;;;;;;;;;5057848;28;20451;-70
2021/01/05 12:09:29;;;;;;;21.27;13.03;;;;;;;;;;5057935;28;20528;-70
2021/01/05 12:11:57;;;;;;;29.57;14.90;;;;;;;;;;5058075;28;20531;-70
2021/01/05 12:14:25;;;;;;;23.43;14.23;;;;;;;;;;5056708;28;20519;-70
2021/01/05 12:16:52;;;;;;;27.00;14.60;;;;;;;;;;5058051;28;20532;-70
2021/01/05 12:19:20;;;;;;;23.43;14.07;;;;;;;;;;5057871;28;20441;-70
2021/01/05 12:21:50;;;;;;;26.60;14.97;;;;;;;;;;5058028;28;20956;-70
2021/01/05 12:24:18;;;;;;;23.50;14.07;;;;;;;;;;5057458;28;20564;-70
2021/01/05 12:26:45;;;;;;;24.97;14.43;;;;;;;;;;5057817;28;20548;-70
2021/01/05 12:29:14;;;;;;;23.53;13.97;;;;;;;;;;5057717;28;20450;-69
2021/01/05 12:31:42;;;;;;;25.37;14.03;;;;;;;;;;5057759;28;20445;-70
2021/01/05 12:34:09;;;;;;;25.60;15.13;;;;;;;;;;5057617;28;20457;-69
2021/01/05 12:36:37;;;;;;;24.97;13.30;;;;;;;;;;5057869;28;20493;-69
2021/01/05 12:39:05;;;;;;;23.97;13.07;;;;;;;;;;5057496;28;20481;-69
2021/01/05 12:41:33;;;;;;;28.83;14.33;;;;;;;;;;5057294;28;20881;-69
2021/01/05 12:44:00;;;;;;;29.30;14.77;;;;;;;;;;5057436;28;20572;-69
2021/01/05 12:46:29;;;;;;;24.40;13.90;;;;;;;;;;5057442;28;20441;-69
2021/01/05 12:48:57;;;;;;;28.00;15.27;;;;;;;;;;5055180;28;20491;-69
2021/01/05 12:51:35;;;;;;;27.90;14.73;;;;;;;;;;5056111;28;20462;-69
2021/01/05 12:54:02;;;;;;;26.50;14.60;;;;;;;;;;5057442;28;20480;-69
2021/01/05 12:56:29;;;;;;;29.03;13.80;;;;;;;;;;5057564;28;20509;-70
2021/01/05 12:58:56;;;;;;;27.00;13.73;;;;;;;;;;5056886;28;20453;-69
2021/01/05 13:01:23;;;;;;;24.43;14.17;;;;;;;;;;5057444;28;20503;-70
2021/01/05 13:03:51;;;;;;;27.20;14.20;;;;;;;;;;5057214;28;20483;-70
2021/01/05 13:06:19;;;;;;;29.57;14.77;;;;;;;;;;5059289;28;20445;-74
2021/01/05 13:08:47;;;;;;;27.13;14.00;;;;;;;;;;5061663;28;20449;-73
2021/01/05 13:11:16;;;;;;;25.33;14.73;;;;;;;;;;5061401;28;20441;-74
2021/01/05 13:13:43;;;;;;;28.00;14.27;;;;;;;;;;5067309;28;20435;-73
2021/01/05 13:16:24;;;;;;;27.87;14.93;;;;;;;;;;5071023;28;20449;-73
2021/01/05 13:18:52;;;;;;;26.97;14.60;;;;;;;;;;5066273;28;20938;-73
2021/01/05 13:21:26;;;;;;;28.87;15.83;;;;;;;;;;5070955;28;20452;-73
2021/01/05 13:23:57;;;;;;;27.77;15.70;;;;;;;;;;5071920;28;20507;-73
2021/01/05 13:26:25;;;;;;;25.23;14.20;;;;;;;;;;5071564;28;20449;-74
2021/01/05 13:28:52;;;;;;;24.10;13.40;;;;;;;;;;5069738;28;20507;-74
2021/01/05 13:31:19;;;;;;;27.93;15.07;;;;;;;;;;5070203;28;20515;-74
2021/01/05 13:33:46;;;;;;;23.73;13.63;;;;;;;;;;5071653;28;20521;-74
2021/01/05 13:36:21;;;;;;;26.63;15.20;;;;;;;;;;5068606;28;20447;-73
2021/01/05 13:38:48;;;;;;;22.93;13.33;;;;;;;;;;5066176;28;20472;-74
2021/01/05 13:41:25;;;;;;;25.23;13.80;;;;;;;;;;5068732;28;20441;-73
2021/01/05 13:43:52;;;;;;;26.30;14.70;;;;;;;;;;5070156;28;20549;-73
2021/01/05 13:46:24;;;;;;;25.20;14.90;;;;;;;;;;5067538;28;20445;-74
2021/01/05 13:48:51;;;;;;;25.27;12.90;;;;;;;;;;5066409;28;21206;-73
2021/01/05 13:51:25;;;;;;;23.13;13.63;;;;;;;;;;5068820;28;20442;-73
2021/01/05 13:53:53;;;;;;;29.13;14.70;;;;;;;;;;5067617;28;20844;-67
2021/01/05 13:56:20;;;;;;;26.73;15.63;;;;;;;;;;5064216;28;20437;-69
2021/01/05 13:58:47;;;;;;;27.17;15.67;;;;;;;;;;5059814;28;20860;-67
2021/01/05 14:01:14;;;;;;;24.77;15.03;;;;;;;;;;5057630;28;20445;-68
2021/01/05 14:03:44;;;;;;;27.33;15.43;;;;;;;;;;5059858;28;20485;-67
2021/01/05 14:06:15;;;;;;;29.63;15.40;;;;;;;;;;5059480;28;20465;-68
2021/01/05 14:08:43;;;;;;;23.83;14.17;;;;;;;;;;5060196;28;20447;-68
2021/01/05 14:11:10;;;;;;;27.00;15.50;;;;;;;;;;5059253;28;20446;-67
2021/01/05 14:13:37;;;;;;;25.23;14.47;;;;;;;;;;5059919;28;20517;-67
2021/01/05 14:16:05;;;;;;;30.60;15.17;;;;;;;;;;5060019;28;20461;-68
2021/01/05 14:18:31;;;;;;;26.70;14.50;;;;;;;;;;5058777;28;20456;-68
2021/01/05 14:20:58;;;;;;;27.20;15.27;;;;;;;;;;5059623;28;20458;-68
2021/01/05 14:23:25;;;;;;;27.80;14.70;;;;;;;;;;5059717;28;20480;-68
2021/01/05 14:25:53;;;;;;;27.93;15.07;;;;;;;;;;5059488;28;20469;-67
2021/01/05 14:28:24;;;;;;;28.40;15.37;;;;;;;;;;5059623;28;20458;-67
2021/01/05 14:30:51;;;;;;;24.50;15.00;;;;;;;;;;5059678;28;20453;-67